Time;durP1;ratioP1;P1;durP2;ratioP2;P2;SDS_P1;SDS_P2;PMS_P1;PMS_P2;Temp;Humidity;BMP_temperature;BMP_pressure;BME280_temperature;BME280_humidity;BME280_pressure;Samples;Min_cycle;Max_cycle;Signal;HPM_P1;HPM_P2
2022/04/22 00:00:52;;;;;;;11.02;6.60;;;;;;;14.04;51.69;99352.47;5091649;28;20051;-60
2022/04/22 00:03:18;;;;;;;9.55;6.40;;;;;;;14.03;51.46;99361.38;5091758;28;20062;-60
2022/04/22 00:05:45;;;;;;;9.32;6.85;;;;;;;14.00;51.54;99359.81;5091690;28;20063;-60
2022/04/22 00:08:12;;;;;;;12.13;6.75;;;;;;;13.97;51.72;99356.56;5091574;28;20097;-60
2022/04/22 00:11:29;;;;;;;9.93;6.30;;;;;;;13.92;51.80;99349.84;5091095;28;20048;-60
2022/04/22 00:13:28;;;;;;;8.95;6.43;;;;;;;13.90;51.73;99350.88;5091252;28;20052;-59
2022/04/22 00:15:55;;;;;;;11.68;6.50;;;;;;;13.86;51.87;99355.59;5091451;28;20545;-61
2022/04/22 00:18:22;;;;;;;8.45;6.25;;;;;;;13.82;52.01;99351.50;5091428;28;20396;-59
2022/04/22 00:20:49;;;;;;;8.23;6.05;;;;;;;13.78;52.22;99348.25;5091129;28;20105;-61
2022/04/22 00:23:16;;;;;;;11.02;6.90;;;;;;;13.75;52.15;99337.06;5091316;28;20052;-59
2022/04/22 00:25:42;;;;;;;9.38;7.05;;;;;;;13.71;52.29;99330.34;5091399;28;20480;-60
2022/04/22 00:28:09;;;;;;;9.57;6.47;;;;;;;13.67;52.29;99330.56;5091383;28;20524;-61
2022/04/22 00:30:35;;;;;;;10.52;7.03;;;;;;;13.64;52.54;99330.78;5091231;28;20105;-62
2022/04/22 00:33:02;;;;;;;9.07;6.43;;;;;;;13.62;52.78;99335.38;5091132;28;20102;-60
2022/04/22 00:35:28;;;;;;;12.43;6.57;;;;;;;13.60;52.81;99328.53;5091135;28;20056;-60
2022/04/22 00:37:55;;;;;;;9.07;6.30;;;;;;;13.60;52.92;99323.22;5091587;28;20078;-60
2022/04/22 00:40:21;;;;;;;10.80;6.72;;;;;;;13.58;52.99;99322.50;5091087;28;20044;-59
2022/04/22 00:42:48;;;;;;;8.75;6.70;;;;;;;13.56;53.05;99319.97;5091130;28;20080;-59
2022/04/22 00:45:18;;;;;;;11.15;6.53;;;;;;;13.55;52.96;99320.94;5091049;28;20531;-60
2022/04/22 00:47:44;;;;;;;9.02;6.47;;;;;;;13.53;53.18;99328.97;5089828;28;20048;-60
2022/04/22 00:50:11;;;;;;;11.43;6.65;;;;;;;13.51;53.11;99325.63;5089431;28;20088;-61
2022/04/22 00:52:38;;;;;;;10.75;6.80;;;;;;;13.50;53.29;99320.44;5089538;28;20063;-59
2022/04/22 00:55:06;;;;;;;10.70;6.82;;;;;;;13.48;53.40;99315.25;5090272;28;20145;-60
2022/04/22 00:57:32;;;;;;;9.55;7.05;;;;;;;13.47;53.37;99312.69;5090971;28;20484;-59
2022/04/22 01:00:00;;;;;;;10.68;7.10;;;;;;;13.44;53.37;99305.84;5090767;28;20051;-60
2022/04/22 01:02:26;;;;;;;9.48;7.32;;;;;;;13.42;53.58;99299.84;5089480;28;20044;-60
2022/04/22 01:10:24;;;;;;;12.40;8.02;;;;;;;13.39;53.72;99282.41;5090516;28;20126;-61
2022/04/22 01:12:50;;;;;;;10.68;7.53;;;;;;;13.39;53.88;99276.28;5090325;28;20097;-60
2022/04/22 01:15:18;;;;;;;11.40;7.97;;;;;;;13.37;53.82;99272.91;5090047;28;20044;-60
2022/04/22 01:17:45;;;;;;;9.93;7.43;;;;;;;13.36;53.88;99274.72;5088670;28;20044;-60
2022/04/22 01:20:11;;;;;;;9.10;7.63;;;;;;;13.36;53.81;99277.38;5089900;28;20634;-59
2022/04/22 01:22:38;;;;;;;10.10;7.50;;;;;;;13.35;54.15;99280.94;5090159;28;20389;-60
2022/04/22 01:25:05;;;;;;;9.65;7.38;;;;;;;13.33;54.06;99274.94;5089949;28;20052;-59
2022/04/22 01:27:32;;;;;;;11.68;7.75;;;;;;;13.30;54.17;99277.81;5088681;28;20048;-62
2022/04/22 01:30:06;;;;;;;11.02;7.57;;;;;;;13.25;55.11;99274.69;5090059;28;20052;-59
2022/04/22 01:32:32;;;;;;;14.95;7.82;;;;;;;13.24;54.15;99268.53;5090449;28;20051;-60
2022/04/22 01:34:59;;;;;;;9.65;7.28;;;;;;;13.21;54.15;99267.94;5090187;28;20109;-59
2022/04/22 01:37:26;;;;;;;12.25;7.28;;;;;;;13.18;54.14;99270.81;5090315;28;20063;-60
2022/04/22 01:39:52;;;;;;;9.80;7.35;;;;;;;13.14;54.19;99267.56;5090081;28;20048;-60
2022/04/22 01:42:20;;;;;;;13.63;8.13;;;;;;;13.08;54.14;99266.22;5088980;28;20048;-59
2022/04/22 01:44:47;;;;;;;8.07;7.03;;;;;;;13.04;54.03;99259.50;5090114;28;20052;-60
2022/04/22 01:47:14;;;;;;;10.13;7.28;;;;;;;12.99;54.05;99257.22;5090306;28;20055;-59
2022/04/22 01:49:41;;;;;;;9.35;7.20;;;;;;;12.94;54.51;99266.44;5090054;28;20075;-60
2022/04/22 01:52:08;;;;;;;9.10;7.57;;;;;;;12.88;54.54;99260.66;5090182;28;20048;-61
2022/04/22 01:54:34;;;;;;;11.80;7.93;;;;;;;12.84;54.66;99263.63;5090012;28;20411;-62
2022/04/22 01:57:03;;;;;;;9.40;6.93;;;;;;;12.79;54.88;99268.44;5090056;28;20136;-59
2022/04/22 01:59:29;;;;;;;9.48;8.05;;;;;;;12.72;54.77;99266.25;5088737;28;20056;-59
2022/04/22 02:01:58;;;;;;;10.35;8.18;;;;;;;12.68;54.99;99259.50;5090007;28;20048;-59
2022/04/22 02:04:25;;;;;;;10.25;7.47;;;;;;;12.61;54.99;99259.13;5090141;28;20118;-62
2022/04/22 02:06:51;;;;;;;9.75;8.38;;;;;;;12.57;55.08;99260.31;5091132;28;20121;-59
2022/04/22 02:09:18;;;;;;;10.50;7.50;;;;;;;12.53;55.26;99263.28;5093535;28;20108;-59
2022/04/22 02:11:44;;;;;;;9.20;7.53;;;;;;;12.47;55.25;99262.78;5092882;28;20385;-59
2022/04/22 02:14:12;;;;;;;9.70;7.82;;;;;;;12.41;55.46;99255.28;5093760;28;20442;-61
2022/04/22 02:16:39;;;;;;;9.50;7.82;;;;;;;12.35;55.45;99259.22;5093858;28;20514;-61
2022/04/22 02:19:06;;;;;;;10.27;8.00;;;;;;;12.32;55.67;99253.31;5093690;28;20553;-61
2022/04/22 02:21:32;;;;;;;11.77;7.90;;;;;;;12.27;55.71;99253.66;5093882;28;20105;-59
2022/04/22 02:23:59;;;;;;;10.40;8.52;;;;;;;12.24;55.74;99254.75;5093682;28;20081;-59
2022/04/22 02:26:25;;;;;;;10.50;8.43;;;;;;;12.22;55.93;99250.50;5094017;28;20047;-60
2022/04/22 02:28:52;;;;;;;9.45;7.90;;;;;;;12.19;56.10;99250.75;5093892;28;20051;-59
2022/04/22 02:31:19;;;;;;;10.85;8.57;;;;;;;12.18;56.36;99249.06;5092272;28;20048;-60
2022/04/22 02:33:46;;;;;;;12.60;8.27;;;;;;;12.17;56.40;99247.34;5093458;28;20472;-60
2022/04/22 02:36:15;;;;;;;11.85;7.75;;;;;;;12.17;56.20;99250.84;5093379;28;20044;-60
2022/04/22 02:38:42;;;;;;;12.88;9.05;;;;;;;12.15;56.42;99254.53;5093305;28;20063;-62
2022/04/22 02:46:39;;;;;;;10.30;7.93;;;;;;;12.14;56.71;99240.50;5093369;28;20048;-61
2022/04/22 02:49:06;;;;;;;9.85;8.05;;;;;;;12.16;56.72;99243.03;5092962;28;20091;-62
2022/04/22 02:51:32;;;;;;;10.90;7.25;;;;;;;12.15;56.75;99236.91;5093445;28;20097;-59
2022/04/22 02:53:59;;;;;;;9.25;7.40;;;;;;;12.15;56.82;99238.72;5093195;28;20048;-59
2022/04/22 02:56:26;;;;;;;12.30;7.50;;;;;;;12.15;57.07;99239.53;5093279;28;20557;-59
2022/04/22 02:58:54;;;;;;;9.60;7.20;;;;;;;12.15;57.22;99238.72;5092962;28;20129;-61
2022/04/22 03:01:21;;;;;;;10.07;7.47;;;;;;;12.15;56.96;99236.06;5091384;28;20048;-59
2022/04/22 03:03:48;;;;;;;12.73;8.68;;;;;;;12.15;57.05;99236.06;5093170;28;20051;-59
2022/04/22 03:06:14;;;;;;;13.15;8.18;;;;;;;12.13;57.03;99238.81;5093040;28;20044;-60
2022/04/22 03:08:41;;;;;;;9.88;7.75;;;;;;;12.14;57.02;99229.13;5092758;28;20102;-59
2022/04/22 03:11:08;;;;;;;10.85;8.32;;;;;;;12.13;57.22;99233.53;5092485;28;20055;-60
2022/04/22 03:13:34;;;;;;;8.82;7.28;;;;;;;12.12;57.09;99230.06;5092645;28;20308;-59
2022/04/22 03:16:03;;;;;;;11.13;8.10;;;;;;;12.13;57.36;99230.91;5092402;28;20062;-61
2022/04/22 03:18:30;;;;;;;10.48;7.90;;;;;;;12.14;57.43;99231.75;5090808;28;20123;-59
2022/04/22 03:20:57;;;;;;;12.30;8.55;;;;;;;12.14;57.39;99227.31;5091086;28;20074;-63
2022/04/22 03:23:24;;;;;;;11.68;8.77;;;;;;;12.13;57.53;99225.63;5091264;28;20389;-59
2022/04/22 03:25:54;;;;;;;11.07;8.10;;;;;;;12.15;57.42;99228.16;5092464;28;20536;-59
2022/04/22 03:28:22;;;;;;;9.50;7.57;;;;;;;12.17;57.36;99231.53;5092214;28;20109;-61
2022/04/22 03:30:48;;;;;;;10.25;7.80;;;;;;;12.18;57.34;99217.41;5091999;28;20059;-59
2022/04/22 03:33:17;;;;;;;13.68;8.77;;;;;;;12.20;57.36;99220.75;5091021;28;20125;-59
2022/04/22 03:35:50;;;;;;;10.48;7.88;;;;;;;12.20;57.39;99231.31;5090997;28;20044;-59
2022/04/22 03:38:21;;;;;;;10.65;7.55;;;;;;;12.19;58.23;99219.91;5092068;28;20110;-61
2022/04/22 03:40:48;;;;;;;11.25;8.13;;;;;;;12.22;57.54;99229.38;5090651;28;20048;-59
2022/04/22 03:43:15;;;;;;;11.25;7.85;;;;;;;12.24;57.58;99227.50;5091073;28;20454;-61
2022/04/22 03:45:43;;;;;;;10.20;7.28;;;;;;;12.25;57.56;99226.53;5091990;28;20435;-60
2022/04/22 03:48:11;;;;;;;11.85;7.53;;;;;;;12.25;57.51;99215.97;5090567;28;20105;-60
2022/04/22 03:50:37;;;;;;;14.93;7.38;;;;;;;12.27;57.38;99222.00;5091652;28;20121;-60
2022/04/22 03:53:05;;;;;;;13.70;7.85;;;;;;;12.28;57.25;99222.81;5091791;28;20558;-61
2022/04/22 03:55:32;;;;;;;11.23;7.45;;;;;;;12.28;57.17;99225.47;5091698;28;20055;-60
2022/04/22 03:58:11;;;;;;;12.35;8.10;;;;;;;12.29;57.17;99225.34;5090685;28;20105;-62
2022/04/22 04:00:49;;;;;;;14.95;8.00;;;;;;;12.24;58.14;99219.56;5091924;28;20074;-59
2022/04/22 04:03:17;;;;;;;11.82;7.15;;;;;;;12.25;57.38;99218.63;5091461;28;20055;-62
2022/04/22 04:05:48;;;;;;;12.55;7.72;;;;;;;12.23;57.27;99220.53;5090235;28;20055;-60
2022/04/22 04:08:16;;;;;;;11.65;7.90;;;;;;;12.23;57.06;99215.25;5090227;28;20446;-60
2022/04/22 04:16:14;;;;;;;13.65;8.18;;;;;;;12.17;57.05;99218.31;5091392;28;20097;-60
2022/04/22 04:18:41;;;;;;;14.93;9.45;;;;;;;12.14;57.19;99211.47;5091238;28;20408;-59
2022/04/22 04:24:01;;;;;;;16.65;8.18;;;;;;;12.11;57.08;99211.69;5091470;28;20091;-61
2022/04/22 04:26:28;;;;;;;19.63;7.80;;;;;;;12.11;57.29;99214.34;5091172;28;20044;-61
2022/04/22 04:28:54;;;;;;;11.93;7.53;;;;;;;12.10;57.24;99218.78;5091023;28;20052;-60
2022/04/22 04:31:21;;;;;;;12.43;7.68;;;;;;;12.09;57.40;99224.16;5090075;28;20681;-60
2022/04/22 04:33:50;;;;;;;12.90;7.75;;;;;;;12.10;57.36;99217.94;5091090;28;20076;-59
2022/04/22 04:36:17;;;;;;;11.20;7.25;;;;;;;12.09;57.34;99214.47;5091048;28;20060;-60
2022/04/22 04:38:44;;;;;;;12.27;7.75;;;;;;;12.10;57.55;99226.69;5090973;28;20492;-60
2022/04/22 04:41:12;;;;;;;11.85;7.28;;;;;;;12.10;57.35;99226.69;5089387;28;20052;-60
2022/04/22 04:43:40;;;;;;;12.57;7.30;;;;;;;12.10;57.37;99216.16;5090876;28;20064;-59
2022/04/22 04:46:07;;;;;;;12.32;7.70;;;;;;;12.11;57.39;99216.97;5091233;28;20455;-61
2022/04/22 04:48:36;;;;;;;15.77;8.10;;;;;;;12.12;57.36;99219.50;5091110;28;20056;-59
2022/04/22 04:51:02;;;;;;;12.52;7.72;;;;;;;12.11;57.62;99223.09;5089633;28;20047;-60
2022/04/22 04:53:29;;;;;;;11.75;7.32;;;;;;;12.12;57.45;99227.41;5090795;28;20117;-60
2022/04/22 04:55:55;;;;;;;13.68;7.20;;;;;;;12.11;57.28;99223.09;5090746;28;20121;-59
2022/04/22 04:58:22;;;;;;;12.15;6.70;;;;;;;12.14;57.44;99215.94;5091077;28;20499;-60
2022/04/22 05:00:49;;;;;;;15.93;6.95;;;;;;;12.14;57.39;99223.84;5090695;28;20446;-62
2022/04/22 05:03:15;;;;;;;12.73;6.97;;;;;;;12.14;57.23;99218.56;5090824;28;20408;-60
2022/04/22 05:05:42;;;;;;;17.42;7.20;;;;;;;12.14;57.19;99214.13;5090817;28;20052;-59
2022/04/22 05:08:09;;;;;;;9.25;6.40;;;;;;;12.14;57.14;99213.28;5090620;28;20113;-61
2022/04/22 05:10:37;;;;;;;7.93;6.05;;;;;;;12.15;57.00;99215.78;5090240;28;20500;-59
2022/04/22 05:13:04;;;;;;;11.32;6.22;;;;;;;12.15;57.23;99218.44;5089508;28;20059;-61
2022/04/22 05:15:32;;;;;;;11.57;6.72;;;;;;;12.16;57.39;99214.00;5089484;28;20052;-60
2022/04/22 05:18:02;;;;;;;13.07;6.07;;;;;;;12.18;57.11;99217.41;5089624;28;20108;-59
2022/04/22 05:20:32;;;;;;;15.52;5.85;;;;;;;12.17;56.93;99208.63;5090616;28;20573;-59
2022/04/22 05:22:59;;;;;;;12.40;5.32;;;;;;;12.17;56.94;99216.53;5090556;28;20052;-61
2022/04/22 05:25:26;;;;;;;9.00;5.28;;;;;;;12.17;56.60;99220.97;5089089;28;20051;-60
2022/04/22 05:27:53;;;;;;;10.50;5.65;;;;;;;12.15;56.31;99209.69;5089207;28;20559;-60
2022/04/22 05:33:06;;;;;;;11.77;5.10;;;;;;;12.11;56.42;99216.97;5090515;28;20052;-61
2022/04/22 05:35:33;;;;;;;11.20;5.40;;;;;;;12.09;56.20;99211.84;5090321;28;20052;-59
2022/04/22 05:38:04;;;;;;;9.60;5.20;;;;;;;12.04;56.59;99215.72;5089211;28;20092;-63
2022/04/22 05:40:33;;;;;;;10.80;4.93;;;;;;;12.05;56.30;99214.75;5090321;28;20072;-60
2022/04/22 05:43:01;;;;;;;6.07;4.15;;;;;;;12.04;56.15;99210.44;5092347;28;20091;-60
2022/04/22 05:45:28;;;;;;;7.28;4.40;;;;;;;12.03;56.15;99214.84;5094090;28;20059;-61
2022/04/22 05:47:58;;;;;;;9.55;4.45;;;;;;;12.04;56.00;99216.53;5094321;28;20495;-61
2022/04/22 05:50:26;;;;;;;7.28;4.05;;;;;;;12.03;55.93;99208.75;5094236;28;20051;-60
2022/04/22 05:52:54;;;;;;;7.07;3.80;;;;;;;12.02;55.90;99213.19;5094248;28;20056;-61
2022/04/22 05:55:22;;;;;;;6.97;3.78;;;;;;;12.02;55.98;99215.81;5093066;28;20052;-60
2022/04/22 05:57:52;;;;;;;6.95;3.72;;;;;;;12.02;55.96;99205.28;5093038;28;20053;-58
2022/04/22 06:00:21;;;;;;;7.03;4.53;;;;;;;12.03;55.81;99203.50;5094278;28;20102;-59
2022/04/22 06:02:48;;;;;;;8.07;4.18;;;;;;;12.04;55.88;99197.25;5093997;28;20541;-59
2022/04/22 06:05:17;;;;;;;8.38;4.53;;;;;;;12.03;55.94;99204.31;5094225;28;20476;-59
2022/04/22 06:07:44;;;;;;;8.85;4.47;;;;;;;12.06;55.80;99196.22;5094084;28;20052;-59
2022/04/22 06:12:58;;;;;;;6.38;3.30;;;;;;;12.08;55.68;99196.94;5093815;28;20339;-60
2022/04/22 06:15:25;;;;;;;10.57;4.30;;;;;;;12.10;55.65;99194.19;5092463;28;20055;-61
2022/04/22 06:17:51;;;;;;;5.72;3.72;;;;;;;12.12;55.44;99195.75;5093670;28;20044;-59
2022/04/22 06:20:18;;;;;;;6.95;3.75;;;;;;;12.11;55.38;99194.09;5093944;28;20514;-59
2022/04/22 06:22:45;;;;;;;8.10;3.50;;;;;;;12.12;55.18;99193.13;5093970;28;20048;-59
2022/04/22 06:25:12;;;;;;;6.38;3.83;;;;;;;12.12;55.21;99200.22;5093933;28;20060;-60
2022/04/22 06:27:44;;;;;;;4.93;3.33;;;;;;;12.10;55.40;99197.69;5093753;28;20076;-62
2022/04/22 06:30:14;;;;;;;7.20;3.55;;;;;;;12.12;55.05;99208.13;5092368;28;20063;-62
2022/04/22 06:32:44;;;;;;;6.25;3.05;;;;;;;12.11;55.12;99201.13;5093108;28;20408;-60
2022/04/22 06:35:12;;;;;;;8.73;4.07;;;;;;;12.10;55.00;99212.66;5092152;28;20074;-59
2022/04/22 06:37:41;;;;;;;4.55;2.88;;;;;;;12.08;55.15;99202.22;5093534;28;20169;-59
2022/04/22 06:45:48;;;;;;;7.32;3.08;;;;;;;12.12;54.76;99197.56;5093580;28;20062;-60
2022/04/22 06:48:26;;;;;;;7.72;3.63;;;;;;;12.12;55.22;99198.41;5091982;28;20507;-61
2022/04/22 06:51:11;;;;;;;4.60;3.05;;;;;;;12.19;55.01;99195.31;5091984;28;20059;-59
2022/04/22 06:53:39;;;;;;;3.20;2.80;;;;;;;12.21;54.82;99186.34;5090867;28;20060;-60
2022/04/22 06:56:06;;;;;;;7.30;2.80;;;;;;;12.24;54.79;99190.56;5092056;28;20062;-60
2022/04/22 06:58:37;;;;;;;4.70;2.80;;;;;;;12.28;54.71;99197.28;5091490;28;20058;-61
2022/04/22 07:01:07;;;;;;;5.85;2.92;;;;;;;12.32;54.63;99196.09;5091167;28;20060;-61
2022/04/22 07:03:53;;;;;;;4.45;2.97;;;;;;;12.40;54.48;99200.00;5091573;28;20082;-60
2022/04/22 07:06:20;;;;;;;6.25;3.20;;;;;;;12.45;54.32;99198.66;5093081;28;20063;-62
2022/04/22 07:08:48;;;;;;;12.35;3.35;;;;;;;12.51;54.47;99202.66;5092707;28;20193;-62
2022/04/22 07:11:21;;;;;;;7.60;2.60;;;;;;;12.56;54.29;99199.69;5092456;28;20048;-59
2022/04/22 07:13:48;;;;;;;7.18;2.85;;;;;;;12.63;54.33;99191.19;5091479;28;20044;-60
2022/04/22 07:16:18;;;;;;;7.20;2.67;;;;;;;12.68;53.98;99190.84;5092502;28;20056;-60
2022/04/22 07:18:46;;;;;;;5.75;2.65;;;;;;;12.75;54.19;99188.59;5093108;28;20052;-59
2022/04/22 07:21:13;;;;;;;4.53;2.80;;;;;;;12.83;54.04;99188.84;5091339;28;20051;-59
2022/04/22 07:23:40;;;;;;;4.82;2.40;;;;;;;12.90;53.80;99183.94;5091242;28;20120;-61
2022/04/22 07:26:11;;;;;;;10.85;2.50;;;;;;;12.97;53.70;99181.69;5092379;28;20059;-60
2022/04/22 07:28:39;;;;;;;6.40;2.63;;;;;;;13.01;53.56;99178.66;5092903;28;20055;-59
2022/04/22 07:31:08;;;;;;;10.35;2.53;;;;;;;13.07;53.35;99184.44;5092674;28;20048;-59
2022/04/22 07:33:35;;;;;;;5.10;2.42;;;;;;;13.11;53.18;99188.53;5091204;28;20048;-59
2022/04/22 07:36:01;;;;;;;5.65;2.55;;;;;;;13.15;52.95;99188.19;5092263;28;20052;-61
2022/04/22 07:38:28;;;;;;;2.83;2.17;;;;;;;13.19;52.96;99187.97;5092277;28;20487;-62
2022/04/22 07:40:55;;;;;;;3.90;2.50;;;;;;;13.21;52.58;99186.03;5091865;28;20059;-59
2022/04/22 07:48:59;;;;;;;3.65;2.35;;;;;;;13.24;52.51;99181.34;5092011;28;20387;-60
2022/04/22 07:51:26;;;;;;;5.28;2.45;;;;;;;13.24;52.28;99191.09;5090488;28;20724;-59
2022/04/22 07:53:57;;;;;;;4.13;2.45;;;;;;;13.25;52.46;99195.41;5092118;28;20082;-62
2022/04/22 07:56:24;;;;;;;5.03;2.83;;;;;;;13.27;52.32;99189.03;5090653;28;20054;-59
2022/04/22 07:58:50;;;;;;;5.53;2.97;;;;;;;13.28;52.38;99182.78;5091832;28;20555;-59
2022/04/22 08:01:18;;;;;;;5.53;3.05;;;;;;;13.30;52.29;99182.66;5091717;28;20060;-60
2022/04/22 08:03:45;;;;;;;4.38;2.60;;;;;;;13.34;52.42;99184.09;5092325;28;20392;-60
2022/04/22 08:06:12;;;;;;;16.88;3.33;;;;;;;13.38;52.52;99180.25;5091642;28;20086;-58
2022/04/22 08:08:40;;;;;;;5.78;2.90;;;;;;;13.45;52.35;99187.72;5090479;28;20147;-62
2022/04/22 08:11:07;;;;;;;6.65;3.10;;;;;;;13.51;52.38;99185.47;5091155;28;20416;-60
2022/04/22 08:13:35;;;;;;;4.55;2.58;;;;;;;13.58;52.47;99184.97;5091478;28;20059;-60
2022/04/22 08:16:03;;;;;;;5.63;2.70;;;;;;;13.66;52.51;99187.88;5091343;28;20048;-59
2022/04/22 08:18:30;;;;;;;6.53;3.03;;;;;;;13.72;52.11;99174.13;5090200;28;20181;-59
2022/04/22 08:20:57;;;;;;;6.05;3.17;;;;;;;13.81;52.14;99169.94;5091167;28;20044;-59
2022/04/22 08:23:23;;;;;;;3.92;2.72;;;;;;;13.89;52.25;99169.31;5091510;28;20051;-62
2022/04/22 08:25:50;;;;;;;5.35;3.22;;;;;;;13.95;51.74;99163.53;5091072;28;20591;-60
2022/04/22 08:28:16;;;;;;;7.10;3.50;;;;;;;13.99;51.67;99159.69;5091285;28;20052;-59
2022/04/22 08:30:43;;;;;;;5.13;2.83;;;;;;;14.04;51.49;99167.22;5089610;28;20459;-61
2022/04/22 08:33:11;;;;;;;3.08;2.53;;;;;;;14.06;51.34;99162.66;5091363;28;20407;-60
2022/04/22 08:35:37;;;;;;;3.80;2.95;;;;;;;14.11;51.56;99165.78;5091184;28;20039;-62
2022/04/22 08:38:06;;;;;;;4.75;2.47;;;;;;;14.15;51.56;99163.72;5091268;28;20084;-61
2022/04/22 08:40:37;;;;;;;6.72;3.20;;;;;;;14.17;51.53;99154.66;5090933;28;20056;-60
2022/04/22 08:43:06;;;;;;;5.50;3.40;;;;;;;14.23;51.40;99152.47;5090074;28;20048;-60
2022/04/22 08:45:33;;;;;;;9.48;3.17;;;;;;;14.29;51.41;99152.84;5089800;28;20455;-59
2022/04/22 08:50:54;;;;;;;8.57;3.15;;;;;;;14.42;51.30;99147.34;5091170;28;20060;-61
2022/04/22 08:53:28;;;;;;;4.97;2.90;;;;;;;14.52;51.39;99152.75;5089838;28;20064;-61
2022/04/22 08:55:57;;;;;;;5.65;3.47;;;;;;;14.64;51.35;99150.00;5090846;28;20427;-60
2022/04/22 08:58:29;;;;;;;6.57;3.75;;;;;;;14.73;51.78;99150.09;5089517;28;20040;-59
2022/04/22 09:00:57;;;;;;;13.77;4.90;;;;;;;14.86;51.69;99149.09;5089651;28;20131;-59
2022/04/22 09:03:28;;;;;;;6.47;3.38;;;;;;;14.97;51.45;99145.50;5089502;28;20131;-61
2022/04/22 09:05:56;;;;;;;7.60;3.38;;;;;;;15.10;51.69;99140.84;5089729;28;20056;-58
2022/04/22 09:08:25;;;;;;;7.55;3.80;;;;;;;15.24;51.44;99146.75;5090842;28;20134;-59
2022/04/22 09:10:53;;;;;;;4.07;3.25;;;;;;;15.36;51.61;99142.19;5089252;28;20051;-59
2022/04/22 09:13:30;;;;;;;6.35;3.20;;;;;;;15.47;50.97;99136.78;5089417;28;20499;-62
2022/04/22 09:15:58;;;;;;;5.75;3.42;;;;;;;15.61;50.88;99127.63;5088915;28;20546;-59
2022/04/22 09:18:41;;;;;;;4.25;3.17;;;;;;;15.75;50.94;99122.91;5089318;28;20415;-60
2022/04/22 09:21:19;;;;;;;5.72;3.70;;;;;;;15.84;50.49;99121.22;5090809;28;20634;-59
2022/04/22 09:23:46;;;;;;;11.63;4.05;;;;;;;15.98;50.36;99115.56;5089171;28;20047;-62
2022/04/22 09:26:24;;;;;;;8.20;3.67;;;;;;;16.05;49.97;99115.00;5090579;28;20095;-60
2022/04/22 09:29:01;;;;;;;9.23;3.40;;;;;;;16.15;49.27;99108.72;5090341;28;20056;-59
2022/04/22 09:31:28;;;;;;;9.23;3.60;;;;;;;16.28;49.92;99102.28;5089111;28;20105;-58
2022/04/22 09:33:56;;;;;;;5.25;3.22;;;;;;;16.36;49.66;99101.56;5089414;28;20052;-61
2022/04/22 09:45:07;;;;;;;5.43;3.08;;;;;;;16.78;49.17;99093.25;5090455;28;20059;-60
2022/04/22 09:47:36;;;;;;;4.63;2.88;;;;;;;16.90;48.49;99095.75;5089120;28;20522;-60
2022/04/22 09:50:05;;;;;;;7.45;3.00;;;;;;;17.01;47.97;99097.38;5088968;28;20055;-59
2022/04/22 09:52:36;;;;;;;4.60;2.58;;;;;;;17.12;47.58;99093.75;5090697;28;20048;-58
2022/04/22 09:55:07;;;;;;;6.82;2.63;;;;;;;17.21;47.22;99092.00;5089148;28;20044;-58
2022/04/22 09:57:55;;;;;;;7.60;2.50;;;;;;;17.29;47.20;99090.31;5088970;28;20090;-59
2022/04/22 10:00:24;;;;;;;4.90;2.38;;;;;;;17.42;47.13;99086.47;5090057;28;20051;-62
2022/04/22 10:02:52;;;;;;;3.63;2.50;;;;;;;17.51;46.74;99082.06;5088816;28;20059;-60
2022/04/22 10:05:20;;;;;;;3.08;2.25;;;;;;;17.60;46.17;99083.00;5089064;28;20052;-59
2022/04/22 10:07:55;;;;;;;4.60;2.22;;;;;;;17.67;45.45;99082.25;5090046;28;20078;-59
2022/04/22 10:10:28;;;;;;;3.33;1.88;;;;;;;17.78;44.50;99073.19;5089744;28;20500;-59
2022/04/22 10:12:59;;;;;;;10.02;2.13;;;;;;;17.88;44.84;99081.13;5088979;28;20121;-59
2022/04/22 10:15:28;;;;;;;6.85;1.80;;;;;;;17.97;44.54;99079.34;5088815;28;20048;-60
2022/04/22 10:17:55;;;;;;;4.60;2.30;;;;;;;18.04;44.47;99075.09;5088892;28;20048;-60
2022/04/22 10:20:22;;;;;;;3.55;1.95;;;;;;;18.14;44.69;99074.22;5088576;28;20097;-59
2022/04/22 10:22:50;;;;;;;4.95;2.28;;;;;;;18.23;44.21;99068.81;5088703;28;20060;-60
2022/04/22 10:25:17;;;;;;;3.05;1.98;;;;;;;18.33;44.13;99063.38;5089932;28;20060;-62
2022/04/22 10:27:46;;;;;;;11.00;2.10;;;;;;;18.44;43.81;99078.28;5090009;28;20048;-59
2022/04/22 10:30:14;;;;;;;2.83;2.00;;;;;;;18.55;43.72;99074.53;5092788;28;20052;-62
2022/04/22 10:32:45;;;;;;;2.97;2.00;;;;;;;18.66;42.99;99070.75;5093422;28;20056;-60
2022/04/22 10:35:13;;;;;;;3.10;2.03;;;;;;;18.80;42.85;99065.84;5093393;28;20051;-59
2022/04/22 10:37:41;;;;;;;5.68;2.45;;;;;;;18.95;43.17;99076.75;5093411;28;20389;-60
2022/04/22 10:40:27;;;;;;;2.75;1.90;;;;;;;19.05;42.07;99077.50;5093193;28;20559;-60
2022/04/22 10:42:58;;;;;;;2.83;1.83;;;;;;;19.21;42.87;99073.25;5093180;28;20484;-59
2022/04/22 10:48:24;;;;;;;5.93;2.35;;;;;;;19.42;41.29;99063.94;5093205;28;20062;-61
2022/04/22 10:50:59;;;;;;;4.63;2.40;;;;;;;19.57;41.39;99073.00;5091796;28;20050;-59
2022/04/22 10:53:28;;;;;;;4.00;2.00;;;;;;;19.76;42.17;99066.53;5091866;28;20048;-59
2022/04/22 10:56:27;;;;;;;5.20;2.10;;;;;;;19.98;42.55;99055.38;5091685;28;20052;-59
2022/04/22 10:59:15;;;;;;;2.30;2.10;;;;;;;20.35;42.68;99047.88;5093099;28;20055;-60
2022/04/22 11:01:43;;;;;;;3.42;2.05;;;;;;;20.78;43.20;99053.81;5092961;28;20446;-60
2022/04/22 11:04:26;;;;;;;4.95;2.65;;;;;;;21.24;42.40;99048.81;5091590;28;20044;-59
2022/04/22 11:06:53;;;;;;;3.53;2.05;;;;;;;21.81;42.58;99041.47;5092677;28;20515;-61
2022/04/22 11:09:43;;;;;;;7.03;2.25;;;;;;;22.37;41.13;99045.72;5092699;28;20405;-60
2022/04/22 11:12:10;;;;;;;3.97;2.20;;;;;;;22.94;40.79;99046.13;5091570;28;20101;-60
2022/04/22 11:14:44;;;;;;;3.38;2.03;;;;;;;23.44;38.19;99034.81;5092605;28;20081;-60
2022/04/22 11:17:44;;;;;;;5.22;2.53;;;;;;;23.96;39.25;99026.63;5092638;28;20047;-60
2022/04/22 11:20:11;;;;;;;6.43;2.08;;;;;;;24.44;38.59;99031.38;5088229;28;20054;-59
2022/04/22 11:22:57;;;;;;;2.63;2.05;;;;;;;24.80;36.81;99031.38;5091065;28;20048;-61
2022/04/22 11:25:29;;;;;;;3.58;2.40;;;;;;;25.17;36.02;99018.53;5091525;28;20847;-60
2022/04/22 11:27:57;;;;;;;8.55;2.40;;;;;;;25.51;36.84;99013.22;5091199;28;20051;-60
2022/04/22 11:30:26;;;;;;;4.82;2.40;;;;;;;25.86;35.83;99018.47;5090997;28;20139;-61
2022/04/22 11:33:01;;;;;;;3.00;2.63;;;;;;;26.15;34.57;99010.19;5091137;28;20040;-60
2022/04/22 11:35:37;;;;;;;5.22;2.90;;;;;;;26.41;34.43;99013.94;5091204;28;20052;-60
2022/04/22 11:38:04;;;;;;;4.32;2.53;;;;;;;26.71;33.95;99009.91;5092199;28;20052;-60
2022/04/22 11:40:35;;;;;;;6.32;2.70;;;;;;;26.87;32.96;99011.34;5090633;28;20052;-60
2022/04/22 11:43:10;;;;;;;6.63;2.70;;;;;;;27.01;32.89;99006.72;5092129;28;20117;-62
2022/04/22 11:45:40;;;;;;;6.60;3.05;;;;;;;27.19;33.44;99008.72;5092151;28;20047;-61
2022/04/22 11:48:08;;;;;;;6.43;2.97;;;;;;;27.36;33.52;99011.75;5090800;28;20055;-60
2022/04/22 11:50:40;;;;;;;4.60;2.95;;;;;;;27.53;32.23;99011.22;5091744;28;20044;-60
2022/04/22 11:53:13;;;;;;;5.78;3.38;;;;;;;27.72;32.51;99008.66;5092237;28;20120;-60
2022/04/22 11:55:42;;;;;;;5.03;3.05;;;;;;;27.95;32.30;99000.78;5090875;28;20656;-61
2022/04/22 11:58:17;;;;;;;5.13;3.47;;;;;;;28.03;31.12;99017.78;5092027;28;20044;-62
2022/04/22 12:06:17;;;;;;;10.13;3.67;;;;;;;27.49;29.69;99027.06;5091585;28;20098;-61
2022/04/22 12:08:53;;;;;;;5.25;3.70;;;;;;;26.92;29.10;99020.44;5091453;28;20102;-60
2022/04/22 12:11:20;;;;;;;5.47;3.28;;;;;;;26.43;29.66;99016.41;5089937;28;20043;-59
2022/04/22 12:13:48;;;;;;;4.10;3.58;;;;;;;25.82;29.98;99019.94;5090499;28;20495;-61
2022/04/22 12:16:26;;;;;;;6.32;3.70;;;;;;;25.15;31.00;99019.75;5091469;28;20132;-60
2022/04/22 12:18:54;;;;;;;3.45;2.88;;;;;;;24.65;30.98;99018.88;5090091;28;20064;-60
2022/04/22 12:21:22;;;;;;;7.05;3.42;;;;;;;24.22;32.11;99019.00;5090022;28;20135;-59
2022/04/22 12:23:50;;;;;;;7.53;3.60;;;;;;;23.93;32.69;99013.56;5090357;28;20048;-60
2022/04/22 12:26:25;;;;;;;5.75;3.25;;;;;;;23.79;33.84;98996.50;5091395;28;20056;-62
2022/04/22 12:29:07;;;;;;;5.45;3.70;;;;;;;23.81;33.58;99014.09;5090071;28;20420;-61
2022/04/22 12:31:38;;;;;;;6.15;3.38;;;;;;;23.88;33.04;99010.63;5091326;28;20062;-60
2022/04/22 12:34:10;;;;;;;7.35;3.55;;;;;;;23.81;32.62;99003.34;5090155;28;20481;-60
2022/04/22 12:37:01;;;;;;;6.47;3.70;;;;;;;23.63;33.26;99006.47;5091069;28;20059;-61